createdAt,value
2022-09-15T00:02:16.417Z,3.13
2022-09-15T00:07:19.210Z,2.70
2022-09-15T00:12:22.020Z,3.30
2022-09-15T00:17:24.932Z,3.47
2022-09-15T00:22:28.192Z,4.03
2022-09-15T00:27:32.688Z,4.10
2022-09-15T00:32:35.684Z,4.60
2022-09-15T00:37:38.331Z,4.80
2022-09-15T00:42:41.071Z,4.27
2022-09-15T00:47:44.550Z,5.30
2022-09-15T00:52:57.236Z,5.43
2022-09-15T00:58:04.162Z,5.40
2022-09-15T01:03:07.151Z,6.77
2022-09-15T01:08:19.089Z,5.53
2022-09-15T01:13:21.787Z,5.10
2022-09-15T01:18:30.382Z,5.83
2022-09-15T01:24:07.104Z,6.27
2022-09-15T01:29:37.437Z,7.40
2022-09-15T01:34:51.126Z,8.30
2022-09-15T01:39:54.565Z,9.07
2022-09-15T01:45:11.947Z,9.73
2022-09-15T01:50:20.663Z,10.20
2022-09-15T01:55:43.178Z,10.37
2022-09-15T02:00:51.788Z,10.53
2022-09-15T02:06:23.679Z,10.97
2022-09-15T02:11:28.236Z,11.03
2022-09-15T02:16:35.422Z,11.00
2022-09-15T02:22:17.784Z,9.83
2022-09-15T02:27:24.205Z,9.77
2022-09-15T02:32:28.769Z,10.07
2022-09-15T02:37:32.130Z,9.30
2022-09-15T02:42:35.285Z,9.53
2022-09-15T02:47:37.953Z,11.00
2022-09-15T02:52:40.653Z,11.70
2022-09-15T02:57:43.377Z,12.07
2022-09-15T03:02:50.337Z,11.70
2022-09-15T03:07:53.648Z,11.13
2022-09-15T03:12:56.368Z,11.00
2022-09-15T03:18:01.745Z,11.80
2022-09-15T03:23:04.461Z,11.23
2022-09-15T03:28:07.091Z,10.93
2022-09-15T03:33:09.813Z,11.27
2022-09-15T03:38:12.859Z,10.23
2022-09-15T03:43:18.614Z,10.63
2022-09-15T03:48:21.921Z,11.97
2022-09-15T03:53:24.725Z,12.30
2022-09-15T03:58:30.626Z,11.17
2022-09-15T04:03:35.728Z,11.47
2022-09-15T04:08:42.012Z,12.23
2022-09-15T04:13:45.116Z,12.53
2022-09-15T04:18:47.790Z,12.63
2022-09-15T04:23:51.224Z,13.63
2022-09-15T04:28:54.345Z,12.70
2022-09-15T04:33:57.366Z,14.60
2022-09-15T04:39:04.395Z,15.83
2022-09-15T04:44:07.003Z,16.27
2022-09-15T04:49:09.691Z,17.73
2022-09-15T04:54:12.347Z,18.10
2022-09-15T04:59:19.534Z,20.07
2022-09-15T05:04:22.385Z,21.50
2022-09-15T05:09:26.538Z,21.03
2022-09-15T05:14:30.154Z,21.13
2022-09-15T05:19:32.901Z,21.83
2022-09-15T05:24:35.587Z,21.70
2022-09-15T05:29:38.211Z,20.77
2022-09-15T05:34:40.946Z,20.93
2022-09-15T05:39:43.678Z,20.87
2022-09-15T05:44:46.311Z,20.60
2022-09-15T05:49:48.914Z,20.43
2022-09-15T05:54:54.660Z,20.33
2022-09-15T05:59:59.728Z,20.27
2022-09-15T06:05:03.144Z,19.87
2022-09-15T06:10:06.677Z,20.73
2022-09-15T06:15:09.830Z,20.27
2022-09-15T06:20:12.609Z,19.73
2022-09-15T06:25:15.509Z,20.63
2022-09-15T06:30:19.042Z,22.10
2022-09-15T06:35:21.800Z,21.83
2022-09-15T06:40:24.552Z,21.23
2022-09-15T06:45:27.270Z,19.93
2022-09-15T06:50:31.155Z,18.83
2022-09-15T06:55:33.880Z,19.37
2022-09-15T07:00:36.570Z,18.07
2022-09-15T07:05:39.298Z,19.20
2022-09-15T07:10:45.099Z,18.83
2022-09-15T07:15:58.777Z,18.10
2022-09-15T07:21:04.031Z,17.17
2022-09-15T07:26:12.619Z,16.50
2022-09-15T07:31:18.312Z,17.33
2022-09-15T07:36:21.659Z,17.20
2022-09-15T07:41:27.075Z,17.67
2022-09-15T07:46:32.223Z,18.37
2022-09-15T07:51:35.012Z,18.47
2022-09-15T07:56:37.711Z,15.67
2022-09-15T08:01:40.799Z,16.50
2022-09-15T08:06:43.473Z,15.70
2022-09-15T08:11:46.169Z,14.80
2022-09-15T08:16:48.834Z,16.00
2022-09-15T08:21:51.556Z,13.60
2022-09-15T08:26:54.763Z,12.00
2022-09-15T08:31:57.496Z,11.20
2022-09-15T08:37:00.164Z,11.70
2022-09-15T08:42:07.428Z,12.10
2022-09-15T08:47:39.104Z,12.97
2022-09-15T08:53:09.894Z,13.17
2022-09-15T08:58:38.999Z,11.97
2022-09-15T09:04:02.768Z,11.93
2022-09-15T09:09:17.753Z,11.47
2022-09-15T09:14:33.016Z,11.10
2022-09-15T09:19:54.734Z,11.00
2022-09-15T09:25:05.885Z,10.30
2022-09-15T09:30:20.092Z,10.67
2022-09-15T09:35:47.255Z,9.30
2022-09-15T09:40:50.732Z,8.40
2022-09-15T09:45:53.608Z,6.37
2022-09-15T09:50:56.755Z,5.77
2022-09-15T09:56:28.815Z,7.70
2022-09-15T10:01:31.721Z,7.57
2022-09-15T10:06:34.553Z,9.07
2022-09-15T10:11:59.201Z,8.80
2022-09-15T10:17:09.976Z,8.43
2022-09-15T10:22:34.675Z,8.50
2022-09-15T10:27:38.003Z,9.33
2022-09-15T10:32:41.703Z,9.53
2022-09-15T10:37:56.609Z,9.67
2022-09-15T10:43:04.853Z,10.07
2022-09-15T10:48:40.954Z,10.60
2022-09-15T10:54:10.968Z,10.03
2022-09-15T10:59:43.632Z,9.40
2022-09-15T11:05:22.002Z,8.13
2022-09-15T11:10:29.574Z,9.13
2022-09-15T11:15:38.181Z,9.73
2022-09-15T11:20:57.858Z,9.17
2022-09-15T11:26:14.627Z,9.50
2022-09-15T11:31:41.258Z,8.60
2022-09-15T11:36:55.945Z,8.63
2022-09-15T11:42:10.574Z,9.47
2022-09-15T11:47:39.720Z,8.60
2022-09-15T11:52:46.264Z,8.10
2022-09-15T11:57:51.564Z,6.60
2022-09-15T12:03:00.148Z,5.27
2022-09-15T12:08:27.543Z,4.43
2022-09-15T12:13:31.636Z,5.17
2022-09-15T12:18:53.243Z,5.43
2022-09-15T12:24:13.568Z,4.40
2022-09-15T12:29:30.361Z,4.13
2022-09-15T12:34:36.867Z,3.67
2022-09-15T12:39:46.234Z,3.37
2022-09-15T12:44:57.254Z,2.50
2022-09-15T12:50:11.195Z,2.40
2022-09-15T12:55:22.701Z,2.50
2022-09-15T13:00:29.634Z,2.80
2022-09-15T13:05:46.275Z,2.70
2022-09-15T13:11:03.156Z,2.57
2022-09-15T13:16:12.212Z,2.60
2022-09-15T13:21:21.176Z,2.83
2022-09-15T13:26:27.567Z,2.90
2022-09-15T13:31:53.664Z,3.80
2022-09-15T13:43:23.448Z,3.63
2022-09-15T13:48:42.542Z,3.47
2022-09-15T13:53:45.411Z,3.20
2022-09-15T13:59:01.224Z,3.50
2022-09-15T14:04:33.394Z,3.37
2022-09-15T14:09:44.927Z,3.20
2022-09-15T14:14:54.777Z,4.70
2022-09-15T14:19:59.941Z,3.30
2022-09-15T14:25:08.965Z,3.90
2022-09-15T14:30:22.657Z,3.70
2022-09-15T14:35:31.726Z,4.03
2022-09-15T14:40:39.526Z,4.10
2022-09-15T14:45:55.049Z,4.30
2022-09-15T14:51:13.430Z,4.23
2022-09-15T14:56:22.923Z,3.80
2022-09-15T15:01:42.987Z,3.60
2022-09-15T15:06:56.183Z,3.53
2022-09-15T15:12:04.671Z,3.40
2022-09-15T15:17:23.660Z,4.00
2022-09-15T15:22:27.021Z,3.77
2022-09-15T15:27:40.633Z,4.07
2022-09-15T15:32:43.778Z,3.33
2022-09-15T15:37:47.422Z,3.60
2022-09-15T15:43:02.171Z,3.30
2022-09-15T15:48:06.217Z,3.63
2022-09-15T15:53:08.883Z,3.30
2022-09-15T15:58:15.027Z,3.30
2022-09-15T16:03:18.743Z,3.10
2022-09-15T16:08:31.667Z,3.60
2022-09-15T16:13:34.662Z,3.40
2022-09-15T16:18:38.017Z,3.10
2022-09-15T16:23:40.740Z,3.03
2022-09-15T16:28:43.566Z,3.00
2022-09-15T16:33:46.299Z,2.90
2022-09-15T16:38:49.759Z,2.90
2022-09-15T16:43:59.374Z,2.80
2022-09-15T16:49:02.078Z,2.70
2022-09-15T16:54:12.487Z,3.60
2022-09-15T16:59:15.442Z,3.53
2022-09-15T17:04:19.416Z,3.37
2022-09-15T17:09:22.123Z,16.67
2022-09-15T17:14:24.921Z,4.90
2022-09-15T17:19:27.658Z,38.80
2022-09-15T17:24:30.374Z,6.10
2022-09-15T17:29:33.020Z,24.33
2022-09-15T17:34:35.684Z,4.50
2022-09-15T17:39:38.370Z,3.80
2022-09-15T17:44:40.990Z,3.40
2022-09-15T17:49:43.632Z,13.20
2022-09-15T17:54:46.266Z,3.83
2022-09-15T17:59:48.945Z,2.43
2022-09-15T18:04:51.930Z,17.30
2022-09-15T18:09:55.674Z,5.47
2022-09-15T18:14:58.359Z,2.50
2022-09-15T18:20:01.529Z,2.50
2022-09-15T18:25:04.407Z,4.63
2022-09-15T18:30:07.796Z,2.67
2022-09-15T18:35:14.183Z,2.77
2022-09-15T18:40:20.507Z,2.53
2022-09-15T18:45:23.680Z,2.43
2022-09-15T18:50:26.719Z,2.47
2022-09-15T18:55:29.390Z,2.93
2022-09-15T19:00:32.210Z,2.40
2022-09-15T19:05:35.457Z,1.97
2022-09-15T19:10:40.832Z,2.20
2022-09-15T19:15:44.264Z,2.10
2022-09-15T19:20:47.127Z,2.50
2022-09-15T19:25:49.853Z,2.43
2022-09-15T19:30:52.603Z,2.30
2022-09-15T19:36:10.781Z,2.20
2022-09-15T19:41:18.429Z,2.50
2022-09-15T19:46:24.352Z,2.60
2022-09-15T19:51:27.323Z,2.70
2022-09-15T19:56:30.357Z,2.60
2022-09-15T20:01:33.283Z,2.20
2022-09-15T20:06:36.925Z,2.60
2022-09-15T20:11:39.627Z,2.77
2022-09-15T20:16:42.459Z,2.80
2022-09-15T20:21:51.570Z,2.87
2022-09-15T20:26:54.585Z,2.53
2022-09-15T20:31:57.594Z,1.70
2022-09-15T20:37:00.250Z,1.43
2022-09-15T20:42:02.974Z,1.33
2022-09-15T20:47:05.817Z,1.40
2022-09-15T20:52:08.473Z,1.30
2022-09-15T20:57:11.183Z,1.30
2022-09-15T21:02:13.897Z,1.30
2022-09-15T21:07:16.858Z,1.50
2022-09-15T21:12:19.470Z,1.57
2022-09-15T21:17:23.185Z,1.40
2022-09-15T21:22:26.039Z,1.13
2022-09-15T21:27:30.073Z,1.40
2022-09-15T21:32:33.904Z,1.40
2022-09-15T21:37:36.824Z,1.73
2022-09-15T21:42:39.528Z,1.30
2022-09-15T21:47:42.209Z,1.40
2022-09-15T21:52:44.890Z,1.40
2022-09-15T21:57:47.601Z,1.40
2022-09-15T22:02:52.392Z,1.50
2022-09-15T22:07:55.317Z,1.50
2022-09-15T22:12:58.310Z,1.60
2022-09-15T22:18:01.376Z,1.80
2022-09-15T22:23:04.038Z,1.60
2022-09-15T22:28:06.619Z,1.73
2022-09-15T22:33:09.316Z,1.70
2022-09-15T22:38:11.965Z,1.70
2022-09-15T22:43:14.632Z,1.80
2022-09-15T22:48:17.424Z,1.80
2022-09-15T22:53:21.194Z,1.80
2022-09-15T22:58:26.496Z,1.60
2022-09-15T23:03:29.155Z,1.53
2022-09-15T23:08:32.762Z,1.67
2022-09-15T23:13:35.679Z,1.70
2022-09-15T23:18:38.556Z,1.70
2022-09-15T23:23:46.329Z,1.60
2022-09-15T23:28:49.662Z,1.70
2022-09-15T23:33:52.332Z,2.03
2022-09-15T23:38:55.201Z,2.00
2022-09-15T23:43:59.893Z,2.33
2022-09-15T23:49:02.831Z,2.10
2022-09-15T23:54:06.480Z,2.20
2022-09-15T23:59:09.666Z,2.47
